createdAt,value
2022-12-05T00:01:03.262Z,98389.72
2022-12-05T00:02:24.264Z,98388.56
2022-12-05T00:03:45.760Z,98382.72
2022-12-05T00:05:08.397Z,98384.50
2022-12-05T00:06:29.809Z,98382.53
2022-12-05T00:07:50.957Z,98383.25
2022-12-05T00:09:14.869Z,98384.31
2022-12-05T00:10:35.858Z,98381.09
2022-12-05T00:11:57.756Z,98383.59
2022-12-05T00:13:16.605Z,98388.91
2022-12-05T00:14:37.553Z,98383.91
2022-12-05T00:15:55.883Z,98388.69
2022-12-05T00:17:16.812Z,98392.88
2022-12-05T00:18:35.247Z,98383.47
2022-12-05T00:19:57.072Z,98384.72
2022-12-05T00:21:19.388Z,98377.81
2022-12-05T00:22:41.665Z,98370.69
2022-12-05T00:24:02.599Z,98378.13
2022-12-05T00:25:26.507Z,98363.13
2022-12-05T00:26:48.131Z,98380.91
2022-12-05T00:28:06.611Z,98374.75
2022-12-05T00:29:28.210Z,98367.31
2022-12-05T00:30:46.509Z,98364.47
2022-12-05T00:32:07.673Z,98362.06
2022-12-05T00:33:25.886Z,98362.50
2022-12-05T00:34:46.902Z,98361.69
2022-12-05T00:36:08.572Z,98350.69
2022-12-05T00:37:32.688Z,98365.75
2022-12-05T00:38:52.359Z,98372.53
2022-12-05T00:40:13.983Z,98360.19
2022-12-05T00:41:35.203Z,98362.28
2022-12-05T00:42:56.761Z,98362.22
2022-12-05T00:44:15.051Z,98361.03
2022-12-05T00:45:37.476Z,98359.06
2022-12-05T00:46:55.695Z,98365.03
2022-12-05T00:48:16.701Z,98360.13
2022-12-05T00:49:35.098Z,98354.06
2022-12-05T00:51:05.469Z,98356.53
2022-12-05T00:52:26.601Z,98363.34
2022-12-05T00:53:46.374Z,98361.91
2022-12-05T00:55:08.213Z,98350.78
2022-12-05T00:56:29.544Z,98363.56
2022-12-05T00:57:53.111Z,98359.47
2022-12-05T00:59:20.596Z,98366.38
2022-12-05T01:00:39.124Z,98362.28
2022-12-05T01:02:00.542Z,98359.59
2022-12-05T01:03:19.025Z,98358.03
2022-12-05T01:04:40.382Z,98356.22
2022-12-05T01:06:00.549Z,98361.16
2022-12-05T01:07:21.666Z,98362.19
2022-12-05T01:08:40.509Z,98349.09
2022-12-05T01:10:01.412Z,98354.44
2022-12-05T01:11:21.300Z,98350.25
2022-12-05T01:12:42.494Z,98342.63
2022-12-05T01:14:03.680Z,98341.06
2022-12-05T01:15:24.679Z,98334.47
2022-12-05T01:16:46.912Z,98332.09
2022-12-05T01:18:08.277Z,98327.34
2022-12-05T01:19:33.106Z,98332.69
2022-12-05T01:20:53.285Z,98327.44
2022-12-05T01:22:14.230Z,98329.84
2022-12-05T01:23:32.645Z,98327.75
2022-12-05T01:24:53.574Z,98327.13
2022-12-05T01:26:15.953Z,98331.25
2022-12-05T01:27:37.005Z,98321.25
2022-12-05T01:28:56.831Z,98324.63
2022-12-05T01:30:20.610Z,98322.28
2022-12-05T01:31:42.648Z,98318.28
2022-12-05T01:33:00.955Z,98322.25
2022-12-05T01:34:23.391Z,98330.00
2022-12-05T01:35:42.942Z,98328.53
2022-12-05T01:37:04.076Z,98328.31
2022-12-05T01:38:22.296Z,98328.31
2022-12-05T01:39:43.233Z,98326.75
2022-12-05T01:41:03.351Z,98323.75
2022-12-05T01:42:26.331Z,98326.38
2022-12-05T01:44:00.645Z,98326.06
2022-12-05T01:45:35.724Z,98333.19
2022-12-05T01:46:55.270Z,98332.13
2022-12-05T01:48:22.918Z,98326.38
2022-12-05T01:49:44.164Z,98329.50
2022-12-05T01:51:06.557Z,98335.25
2022-12-05T01:52:31.680Z,98337.88
2022-12-05T01:53:52.916Z,98333.97
2022-12-05T01:55:18.217Z,98327.38
2022-12-05T01:56:43.407Z,98332.09
2022-12-05T01:58:05.784Z,98327.16
2022-12-05T01:59:31.454Z,98323.94
2022-12-05T02:00:52.578Z,98327.63
2022-12-05T02:02:16.544Z,98327.94
2022-12-05T02:03:38.286Z,98327.72
2022-12-05T02:05:08.661Z,98328.53
2022-12-05T02:06:31.506Z,98328.66
2022-12-05T02:07:50.186Z,98339.44
2022-12-05T02:09:11.203Z,98346.94
2022-12-05T02:10:37.055Z,98357.00
2022-12-05T02:12:03.986Z,98351.75
2022-12-05T02:14:19.584Z,98349.13
2022-12-05T02:15:52.412Z,98340.97
2022-12-05T02:17:39.470Z,98336.88
2022-12-05T02:19:28.975Z,98341.56
2022-12-05T02:21:01.016Z,98343.78
2022-12-05T02:23:00.377Z,98345.09
2022-12-05T02:24:59.060Z,98352.19
2022-12-05T02:26:51.206Z,98352.13
2022-12-05T02:28:39.338Z,98345.72
2022-12-05T02:30:11.186Z,98354.78
2022-12-05T02:31:27.740Z,98347.56
2022-12-05T02:33:10.193Z,98350.94
2022-12-05T02:34:28.358Z,98342.56
2022-12-05T02:35:54.381Z,98332.78
2022-12-05T02:37:13.807Z,98336.25
2022-12-05T02:38:33.227Z,98335.09
2022-12-05T02:39:47.946Z,98338.34
2022-12-05T02:41:09.311Z,98355.38
2022-12-05T02:42:28.889Z,98347.84
2022-12-05T02:43:46.083Z,98351.31
2022-12-05T02:45:02.073Z,98346.28
2022-12-05T02:46:17.368Z,98340.22
2022-12-05T02:47:31.268Z,98339.88
2022-12-05T02:48:41.823Z,98337.88
2022-12-05T02:49:45.755Z,98333.25
2022-12-05T02:50:57.842Z,98340.09
2022-12-05T02:52:08.482Z,98344.78
2022-12-05T02:53:20.793Z,98346.25
2022-12-05T02:54:34.414Z,98335.75
2022-12-05T02:55:44.943Z,98341.44
2022-12-05T02:56:55.609Z,98330.56
2022-12-05T02:58:10.351Z,98337.25
2022-12-05T02:59:19.898Z,98336.81
2022-12-05T03:00:31.788Z,98343.00
2022-12-05T03:01:35.528Z,98344.03
2022-12-05T03:02:44.750Z,98333.97
2022-12-05T03:03:49.678Z,98344.69
2022-12-05T03:05:01.217Z,98344.56
2022-12-05T03:06:13.822Z,98347.31
2022-12-05T03:07:26.701Z,98345.78
2022-12-05T03:08:38.106Z,98346.03
2022-12-05T03:09:52.783Z,98342.66
2022-12-05T03:11:03.615Z,98349.19
2022-12-05T03:12:19.279Z,98342.91
2022-12-05T03:13:33.174Z,98345.41
2022-12-05T03:14:50.116Z,98354.66
2022-12-05T03:16:15.246Z,98343.94
2022-12-05T03:17:25.193Z,98341.44
2022-12-05T03:18:39.326Z,98335.72
2022-12-05T03:19:58.426Z,98342.72
2022-12-05T03:21:19.080Z,98338.53
2022-12-05T03:22:33.177Z,98333.94
2022-12-05T03:23:49.146Z,98338.34
2022-12-05T03:24:53.811Z,98335.72
2022-12-05T03:26:15.220Z,98337.06
2022-12-05T03:27:34.726Z,98336.59
2022-12-05T03:29:00.451Z,98330.81
2022-12-05T03:30:13.165Z,98331.44
2022-12-05T03:31:37.856Z,98333.41
2022-12-05T03:32:54.836Z,98329.84
2022-12-05T03:34:04.124Z,98337.69
2022-12-05T03:35:23.831Z,98333.56
2022-12-05T03:36:41.170Z,98335.78
2022-12-05T03:37:56.739Z,98337.59
2022-12-05T03:39:11.217Z,98336.41
2022-12-05T03:40:30.796Z,98340.50
2022-12-05T03:41:43.233Z,98331.44
2022-12-05T03:43:05.717Z,98331.63
2022-12-05T03:44:18.610Z,98329.09
2022-12-05T03:45:39.829Z,98324.81
2022-12-05T03:46:57.092Z,98320.03
2022-12-05T03:48:17.897Z,98313.34
2022-12-05T03:49:34.131Z,98310.41
2022-12-05T03:50:51.083Z,98309.34
2022-12-05T03:52:07.671Z,98301.81
2022-12-05T03:53:26.206Z,98297.75
2022-12-05T03:54:38.652Z,98302.34
2022-12-05T03:56:05.056Z,98314.41
2022-12-05T03:57:17.825Z,98311.59
2022-12-05T03:58:34.693Z,98312.03
2022-12-05T03:59:50.196Z,98320.63
2022-12-05T04:01:02.475Z,98310.53
2022-12-05T04:02:19.017Z,98318.50
2022-12-05T04:03:40.067Z,98312.97
2022-12-05T04:04:55.111Z,98311.16
2022-12-05T04:06:07.170Z,98304.38
2022-12-05T04:07:18.357Z,98310.66
2022-12-05T04:08:30.272Z,98299.44
2022-12-05T04:09:48.060Z,98296.09
2022-12-05T04:10:59.860Z,98301.25
2022-12-05T04:12:13.763Z,98305.19
2022-12-05T04:13:25.923Z,98311.22
2022-12-05T04:14:43.695Z,98317.19
2022-12-05T04:16:15.784Z,98311.41
2022-12-05T04:17:34.249Z,98312.09
2022-12-05T04:18:50.683Z,98307.38
2022-12-05T04:20:16.512Z,98303.00
2022-12-05T04:21:41.511Z,98300.25
2022-12-05T04:22:49.127Z,98304.25
2022-12-05T04:24:08.746Z,98304.03
2022-12-05T04:25:33.018Z,98305.94
2022-12-05T04:26:53.724Z,98303.19
2022-12-05T04:28:21.437Z,98305.72
2022-12-05T04:29:35.613Z,98299.13
2022-12-05T04:30:53.774Z,98298.81
2022-12-05T04:32:07.251Z,98297.13
2022-12-05T04:33:32.442Z,98297.13
2022-12-05T04:34:42.212Z,98290.22
2022-12-05T04:35:57.782Z,98296.19
2022-12-05T04:37:13.049Z,98289.25
2022-12-05T04:38:29.848Z,98292.94
2022-12-05T04:39:46.982Z,98288.03
2022-12-05T04:41:02.320Z,98301.56
2022-12-05T04:42:15.027Z,98296.47
2022-12-05T04:43:25.986Z,98299.50
2022-12-05T04:44:38.317Z,98295.09
2022-12-05T04:45:47.935Z,98294.03
2022-12-05T04:46:57.746Z,98283.19
2022-12-05T04:48:17.224Z,98291.75
2022-12-05T04:49:29.820Z,98299.25
2022-12-05T04:50:42.829Z,98296.03
2022-12-05T04:51:53.181Z,98290.06
2022-12-05T04:53:04.291Z,98293.94
2022-12-05T04:54:26.699Z,98305.00
2022-12-05T04:55:42.679Z,98294.66
2022-12-05T04:56:58.124Z,98292.56
2022-12-05T04:58:14.609Z,98295.50
2022-12-05T04:59:21.621Z,98294.94
2022-12-05T05:00:29.197Z,98296.59
2022-12-05T05:01:43.547Z,98298.31
2022-12-05T05:02:59.217Z,98303.84
2022-12-05T05:04:14.139Z,98306.53
2022-12-05T05:05:24.944Z,98310.53
2022-12-05T05:06:29.373Z,98301.47
2022-12-05T05:07:35.506Z,98310.16
2022-12-05T05:08:49.863Z,98308.78
2022-12-05T05:09:56.409Z,98311.56
2022-12-05T05:11:15.948Z,98308.09
2022-12-05T05:12:22.105Z,98309.34
2022-12-05T05:13:26.238Z,98307.97
2022-12-05T05:14:32.893Z,98302.34
2022-12-05T05:15:36.641Z,98299.50
2022-12-05T05:16:47.732Z,98300.16
2022-12-05T05:17:51.172Z,98296.78
2022-12-05T05:18:58.079Z,98290.59
2022-12-05T05:20:20.323Z,98294.84
2022-12-05T05:21:30.269Z,98294.72
2022-12-05T05:22:34.684Z,98297.47
2022-12-05T05:23:40.807Z,98294.97
2022-12-05T05:24:44.297Z,98292.72
2022-12-05T05:25:57.758Z,98288.16
2022-12-05T05:27:01.316Z,98293.81
2022-12-05T05:28:08.999Z,98285.59
2022-12-05T05:29:14.775Z,98288.94
2022-12-05T05:30:23.039Z,98288.34
2022-12-05T05:31:27.628Z,98290.44
2022-12-05T05:32:36.080Z,98283.38
2022-12-05T05:33:44.393Z,98294.44
2022-12-05T05:34:48.060Z,98296.63
2022-12-05T05:35:56.872Z,98292.44
2022-12-05T05:37:02.519Z,98291.38
2022-12-05T05:38:09.050Z,98289.81
2022-12-05T05:39:15.537Z,98289.81
2022-12-05T05:40:23.639Z,98286.91
2022-12-05T05:41:32.981Z,98284.72
2022-12-05T05:42:39.646Z,98286.88
2022-12-05T05:43:45.164Z,98286.69
2022-12-05T05:44:52.155Z,98277.56
2022-12-05T05:45:55.828Z,98277.06
2022-12-05T05:47:02.794Z,98282.66
2022-12-05T05:48:07.188Z,98287.06
2022-12-05T05:49:13.989Z,98279.28
2022-12-05T05:50:21.717Z,98281.44
2022-12-05T05:51:32.465Z,98285.88
2022-12-05T05:52:38.566Z,98281.81
2022-12-05T05:53:45.333Z,98275.00
2022-12-05T05:54:48.972Z,98271.94
2022-12-05T05:55:56.253Z,98263.25
2022-12-05T05:56:59.783Z,98267.09
2022-12-05T05:58:06.015Z,98275.28
2022-12-05T05:59:13.265Z,98273.50
2022-12-05T06:00:18.303Z,98265.47
2022-12-05T06:01:25.676Z,98273.81
2022-12-05T06:02:34.082Z,98276.41
2022-12-05T06:03:41.796Z,98279.56
2022-12-05T06:04:45.597Z,98274.84
2022-12-05T06:06:01.130Z,98271.06
2022-12-05T06:07:08.186Z,98281.03
2022-12-05T06:08:14.645Z,98272.81
2022-12-05T06:09:21.005Z,98275.56
2022-12-05T06:10:24.687Z,98277.44
2022-12-05T06:11:32.101Z,98281.53
2022-12-05T06:12:39.737Z,98279.00
2022-12-05T06:13:44.092Z,98278.56
2022-12-05T06:14:51.907Z,98283.09
2022-12-05T06:15:58.192Z,98279.53
2022-12-05T06:17:03.158Z,98277.22
2022-12-05T06:18:10.334Z,98286.25
2022-12-05T06:19:14.373Z,98284.75
2022-12-05T06:20:20.794Z,98286.88
2022-12-05T06:21:26.130Z,98289.16
2022-12-05T06:22:36.289Z,98289.44
2022-12-05T06:23:40.821Z,98293.94
2022-12-05T06:24:47.044Z,98289.53
2022-12-05T06:25:56.953Z,98278.22
2022-12-05T06:27:03.086Z,98286.31
2022-12-05T06:28:09.553Z,98286.81
2022-12-05T06:29:14.324Z,98281.03
2022-12-05T06:30:21.018Z,98286.69
2022-12-05T06:31:28.632Z,98286.50
2022-12-05T06:32:34.984Z,98282.41
2022-12-05T06:33:41.136Z,98295.47
2022-12-05T06:34:48.289Z,98293.44
2022-12-05T06:36:04.680Z,98293.91
2022-12-05T06:37:11.393Z,98297.34
2022-12-05T06:38:17.667Z,98289.25
2022-12-05T06:39:25.051Z,98288.44
2022-12-05T06:40:30.113Z,98293.22
2022-12-05T06:41:36.670Z,98295.22
2022-12-05T06:42:43.346Z,98295.88
2022-12-05T06:43:50.804Z,98301.13
2022-12-05T06:44:54.496Z,98307.91
2022-12-05T06:46:01.680Z,98297.56
2022-12-05T06:47:05.912Z,98304.97
2022-12-05T06:48:12.237Z,98302.34
2022-12-05T06:49:16.088Z,98303.81
2022-12-05T06:50:23.054Z,98304.84
2022-12-05T06:51:27.771Z,98303.97
2022-12-05T06:52:33.835Z,98295.69
2022-12-05T06:53:41.017Z,98299.47
2022-12-05T06:54:49.399Z,98302.91
2022-12-05T06:56:00.625Z,98296.41
2022-12-05T06:57:07.870Z,98293.91
2022-12-05T06:58:13.893Z,98300.94
2022-12-05T06:59:20.447Z,98300.09
2022-12-05T07:00:39.433Z,98296.53
2022-12-05T07:01:44.218Z,98297.03
2022-12-05T07:02:55.449Z,98292.34
2022-12-05T07:03:59.286Z,98294.28
2022-12-05T07:05:05.558Z,98295.97
2022-12-05T07:06:11.695Z,98292.00
2022-12-05T07:07:18.008Z,98306.31
2022-12-05T07:08:23.133Z,98309.84
2022-12-05T07:09:45.571Z,98303.78
2022-12-05T07:10:56.177Z,98307.97
2022-12-05T07:11:59.856Z,98307.28
2022-12-05T07:13:06.130Z,98306.38
2022-12-05T07:14:19.278Z,98311.84
2022-12-05T07:15:36.637Z,98303.75
2022-12-05T07:16:40.176Z,98303.03
2022-12-05T07:17:46.444Z,98308.22
2022-12-05T07:18:50.578Z,98305.38
2022-12-05T07:19:58.256Z,98308.09
2022-12-05T07:21:14.792Z,98305.75
2022-12-05T07:22:23.524Z,98301.16
2022-12-05T07:23:34.199Z,98293.31
2022-12-05T07:24:43.162Z,98308.53
2022-12-05T07:25:47.500Z,98309.69
2022-12-05T07:26:53.824Z,98306.75
2022-12-05T07:27:57.476Z,98313.06
2022-12-05T07:29:05.237Z,98308.53
2022-12-05T07:30:10.608Z,98310.19
2022-12-05T07:31:22.862Z,98306.38
2022-12-05T07:32:26.452Z,98314.16
2022-12-05T07:33:33.320Z,98317.25
2022-12-05T07:34:36.870Z,98306.78
2022-12-05T07:35:43.017Z,98314.75
2022-12-05T07:36:49.977Z,98312.00
2022-12-05T07:37:53.465Z,98308.31
2022-12-05T07:39:01.494Z,98306.81
2022-12-05T07:40:10.185Z,98306.88
2022-12-05T07:41:23.485Z,98300.22
2022-12-05T07:42:30.383Z,98300.09
2022-12-05T07:43:36.691Z,98307.47
2022-12-05T07:44:42.853Z,98305.19
2022-12-05T07:45:46.637Z,98302.81
2022-12-05T07:46:52.720Z,98308.03
2022-12-05T07:47:57.197Z,98308.03
2022-12-05T07:49:03.379Z,98310.34
2022-12-05T07:50:12.032Z,98302.84
2022-12-05T07:51:18.328Z,98317.88
2022-12-05T07:52:24.393Z,98311.09
2022-12-05T07:53:31.380Z,98310.41
2022-12-05T07:54:37.528Z,98312.09
2022-12-05T07:55:46.165Z,98310.03
2022-12-05T07:56:49.626Z,98317.16
2022-12-05T07:57:55.704Z,98309.56
2022-12-05T07:59:00.064Z,98319.38
2022-12-05T08:00:10.122Z,98316.28
2022-12-05T08:01:20.670Z,98319.59
2022-12-05T08:02:27.714Z,98315.91
2022-12-05T08:03:31.533Z,98318.88
2022-12-05T08:04:38.608Z,98316.13
2022-12-05T08:05:42.083Z,98325.38
2022-12-05T08:06:48.359Z,98323.47
2022-12-05T08:07:56.154Z,98318.50
2022-12-05T08:08:59.821Z,98321.34
2022-12-05T08:10:07.813Z,98326.19
2022-12-05T08:11:17.660Z,98311.56
2022-12-05T08:12:23.776Z,98314.28
2022-12-05T08:13:29.924Z,98311.56
2022-12-05T08:14:36.061Z,98307.84
2022-12-05T08:15:40.329Z,98307.41
2022-12-05T08:16:46.450Z,98318.84
2022-12-05T08:17:52.626Z,98318.13
2022-12-05T08:18:57.163Z,98314.94
2022-12-05T08:20:03.253Z,98312.78
2022-12-05T08:21:12.406Z,98311.84
2022-12-05T08:22:18.666Z,98316.28
2022-12-05T08:23:23.541Z,98329.56
2022-12-05T08:24:30.052Z,98315.59
2022-12-05T08:25:35.126Z,98309.66
2022-12-05T08:26:45.620Z,98302.84
2022-12-05T08:27:51.062Z,98313.34
2022-12-05T08:29:02.025Z,98313.25
2022-12-05T08:30:10.763Z,98313.13
2022-12-05T08:31:18.418Z,98315.06
2022-12-05T08:32:25.508Z,98315.25
2022-12-05T08:33:30.835Z,98306.88
2022-12-05T08:34:36.944Z,98322.50
2022-12-05T08:35:40.330Z,98321.03
2022-12-05T08:36:47.476Z,98321.28
2022-12-05T08:37:55.530Z,98317.03
2022-12-05T08:39:04.769Z,98311.69
2022-12-05T08:40:10.147Z,98321.94
2022-12-05T08:41:20.447Z,98329.22
2022-12-05T08:42:29.315Z,98326.31
2022-12-05T08:43:37.359Z,98325.06
2022-12-05T08:44:40.885Z,98326.81
2022-12-05T08:45:53.536Z,98331.94
2022-12-05T08:47:00.827Z,98329.66
2022-12-05T08:48:07.348Z,98323.84
2022-12-05T08:49:12.867Z,98318.94
2022-12-05T08:50:19.414Z,98317.41
2022-12-05T08:51:22.923Z,98321.22
2022-12-05T08:52:29.427Z,98326.13
2022-12-05T08:53:40.943Z,98322.19
2022-12-05T08:54:51.495Z,98332.34
2022-12-05T08:55:57.702Z,98329.19
2022-12-05T08:57:04.076Z,98319.81
2022-12-05T08:58:10.359Z,98323.28
2022-12-05T08:59:16.470Z,98322.78
2022-12-05T09:00:21.766Z,98327.84
2022-12-05T09:01:32.172Z,98331.88
2022-12-05T09:02:38.586Z,98313.75
2022-12-05T09:03:47.865Z,98321.03
2022-12-05T09:04:55.212Z,98325.94
2022-12-05T09:06:08.323Z,98322.34
2022-12-05T09:07:14.631Z,98323.91
2022-12-05T09:08:20.797Z,98328.56
2022-12-05T09:09:27.880Z,98327.84
2022-12-05T09:10:35.523Z,98331.19
2022-12-05T09:11:49.113Z,98326.53
2022-12-05T09:12:52.837Z,98327.00
2022-12-05T09:14:05.103Z,98328.81
2022-12-05T09:15:15.008Z,98328.91
2022-12-05T09:16:22.675Z,98324.38
2022-12-05T09:17:29.703Z,98328.63
2022-12-05T09:18:33.378Z,98328.19
2022-12-05T09:19:39.575Z,98322.44
2022-12-05T09:20:45.706Z,98316.69
2022-12-05T09:21:52.129Z,98314.31
2022-12-05T09:22:58.979Z,98321.38
2022-12-05T09:24:02.677Z,98325.06
2022-12-05T09:25:12.977Z,98312.19
2022-12-05T09:26:22.054Z,98317.53
2022-12-05T09:27:28.135Z,98307.28
2022-12-05T09:28:34.391Z,98315.88
2022-12-05T09:29:43.244Z,98312.78
2022-12-05T09:30:55.655Z,98313.59
2022-12-05T09:32:01.758Z,98315.75
2022-12-05T09:33:05.218Z,98306.81
2022-12-05T09:34:14.314Z,98310.50
2022-12-05T09:35:18.102Z,98313.75
2022-12-05T09:36:27.540Z,98310.06
2022-12-05T09:37:39.145Z,98309.47
2022-12-05T09:38:47.058Z,98314.22
2022-12-05T09:39:57.055Z,98308.88
2022-12-05T09:41:46.824Z,98304.19
2022-12-05T09:43:09.900Z,98299.56
2022-12-05T09:44:47.446Z,98298.00
2022-12-05T09:46:07.802Z,98301.22
2022-12-05T09:47:32.590Z,98298.69
2022-12-05T09:48:45.212Z,98303.84
2022-12-05T09:49:57.917Z,98302.03
2022-12-05T09:51:07.336Z,98289.13
2022-12-05T09:52:27.402Z,98292.47
2022-12-05T09:53:44.786Z,98288.69
2022-12-05T09:54:49.558Z,98291.06
2022-12-05T09:56:06.981Z,98291.28
2022-12-05T09:57:13.441Z,98296.38
2022-12-05T09:58:44.707Z,98287.44
2022-12-05T09:59:51.641Z,98288.66
2022-12-05T10:01:07.323Z,98287.22
2022-12-05T10:02:41.196Z,98293.16
2022-12-05T10:04:08.636Z,98287.06
2022-12-05T10:05:28.193Z,98289.38
2022-12-05T10:06:47.050Z,98292.28
2022-12-05T10:08:12.124Z,98292.59
2022-12-05T10:09:45.037Z,98288.22
2022-12-05T10:11:05.361Z,98284.94
2022-12-05T10:12:40.551Z,98289.47
2022-12-05T10:14:06.744Z,98285.78
2022-12-05T10:15:32.582Z,98288.91
2022-12-05T10:16:52.727Z,98283.50
2022-12-05T10:18:14.079Z,98284.59
2022-12-05T10:19:32.017Z,98284.13
2022-12-05T10:20:51.093Z,98289.41
2022-12-05T10:22:07.661Z,98288.94
2022-12-05T10:23:55.573Z,98291.09
2022-12-05T10:24:59.896Z,98288.56
2022-12-05T10:26:13.150Z,98287.84
2022-12-05T10:27:27.541Z,98286.81
2022-12-05T10:28:45.484Z,98284.28
2022-12-05T10:30:07.671Z,98282.50
2022-12-05T10:31:24.808Z,98280.44
2022-12-05T10:32:40.340Z,98282.69
2022-12-05T10:34:01.816Z,98283.66
2022-12-05T10:35:22.665Z,98285.66
2022-12-05T10:36:29.565Z,98271.41
2022-12-05T10:37:35.862Z,98277.13
2022-12-05T10:38:41.467Z,98276.38
2022-12-05T10:39:49.477Z,98275.75
2022-12-05T10:41:02.591Z,98270.63
2022-12-05T10:42:13.169Z,98275.91
2022-12-05T10:43:29.583Z,98271.94
2022-12-05T10:44:41.938Z,98268.94
2022-12-05T10:45:51.704Z,98267.84
2022-12-05T10:47:02.043Z,98272.19
2022-12-05T10:48:08.972Z,98275.03
2022-12-05T10:49:16.257Z,98270.31
2022-12-05T10:50:35.886Z,98273.41
2022-12-05T10:51:43.892Z,98278.84
2022-12-05T10:52:48.897Z,98277.97
2022-12-05T10:53:56.522Z,98280.47
2022-12-05T10:55:09.853Z,98273.06
2022-12-05T10:56:45.280Z,98272.88
2022-12-05T10:57:56.173Z,98273.84
2022-12-05T10:59:00.440Z,98269.63
2022-12-05T11:00:18.170Z,98268.00
2022-12-05T11:01:28.746Z,98269.25
2022-12-05T11:02:38.594Z,98268.00
2022-12-05T11:03:44.782Z,98264.19
2022-12-05T11:04:52.287Z,98273.03
2022-12-05T11:06:02.960Z,98269.53
2022-12-05T11:07:10.176Z,98262.94
2022-12-05T11:08:48.217Z,98272.88
2022-12-05T11:09:52.235Z,98271.59
2022-12-05T11:11:10.679Z,98272.63
2022-12-05T11:12:23.311Z,98273.09
2022-12-05T11:13:29.996Z,98282.75
2022-12-05T11:14:37.370Z,98276.38
2022-12-05T11:15:55.272Z,98276.78
2022-12-05T11:17:06.235Z,98274.59
2022-12-05T11:18:33.459Z,98266.91
2022-12-05T11:19:41.686Z,98279.19
2022-12-05T11:20:49.713Z,98280.97
2022-12-05T11:21:57.983Z,98278.69
2022-12-05T11:23:32.464Z,98278.75
2022-12-05T11:24:42.840Z,98277.78
2022-12-05T11:26:04.184Z,98283.41
2022-12-05T11:27:31.554Z,98280.69
2022-12-05T11:28:38.675Z,98286.31
2022-12-05T11:29:48.606Z,98289.28
2022-12-05T11:31:03.625Z,98281.44
2022-12-05T11:32:29.648Z,98283.69
2022-12-05T11:33:40.880Z,98270.91
2022-12-05T11:34:58.497Z,98279.31
2022-12-05T11:36:17.153Z,98271.34
2022-12-05T11:37:35.437Z,98274.84
2022-12-05T11:38:45.304Z,98279.38
2022-12-05T11:39:55.540Z,98277.00
2022-12-05T11:41:41.055Z,98276.09
2022-12-05T11:43:22.881Z,98274.56
2022-12-05T11:45:10.871Z,98271.28
2022-12-05T11:46:37.895Z,98275.75
2022-12-05T11:48:25.297Z,98273.00
2022-12-05T11:50:10.879Z,98274.81
2022-12-05T11:51:44.775Z,98272.16
2022-12-05T11:53:19.690Z,98278.91
2022-12-05T11:55:08.741Z,98276.03
2022-12-05T11:56:39.400Z,98272.78
2022-12-05T11:58:11.330Z,98278.63
2022-12-05T11:59:53.022Z,98273.00
2022-12-05T12:01:21.659Z,98275.13
2022-12-05T12:03:00.662Z,98272.84
2022-12-05T12:04:42.615Z,98273.47
2022-12-05T12:06:06.515Z,98272.44
2022-12-05T12:07:41.841Z,98266.44
2022-12-05T12:09:15.987Z,98270.66
2022-12-05T12:10:36.253Z,98264.25
2022-12-05T12:11:55.096Z,98267.25
2022-12-05T12:13:33.390Z,98259.75
2022-12-05T12:14:59.799Z,98259.69
2022-12-05T12:16:25.906Z,98255.13
2022-12-05T12:17:53.357Z,98256.22
2022-12-05T12:19:34.365Z,98254.34
2022-12-05T12:21:09.760Z,98255.91
2022-12-05T12:22:50.576Z,98255.97
2022-12-05T12:24:18.721Z,98247.22
2022-12-05T12:25:45.422Z,98256.66
2022-12-05T12:27:15.130Z,98246.03
2022-12-05T12:28:42.473Z,98248.69
2022-12-05T12:30:08.297Z,98255.63
2022-12-05T12:31:45.917Z,98259.53
2022-12-05T12:33:13.221Z,98252.59
2022-12-05T12:34:51.937Z,98250.00
2022-12-05T12:36:18.881Z,98252.06
2022-12-05T12:37:44.717Z,98250.56
2022-12-05T12:39:26.683Z,98242.91
2022-12-05T12:40:46.868Z,98252.66
2022-12-05T12:42:17.106Z,98246.69
2022-12-05T12:43:54.511Z,98230.41
2022-12-05T12:45:52.334Z,98234.34
2022-12-05T12:47:02.134Z,98226.53
2022-12-05T12:48:33.822Z,98235.69
2022-12-05T12:50:05.304Z,98239.03
2022-12-05T12:51:18.306Z,98232.66
2022-12-05T12:52:33.225Z,98230.56
2022-12-05T12:54:47.328Z,98241.69
2022-12-05T12:56:13.234Z,98243.47
2022-12-05T12:57:34.425Z,98235.41
2022-12-05T12:58:57.337Z,98233.19
2022-12-05T13:00:21.779Z,98236.13
2022-12-05T13:01:44.244Z,98248.75
2022-12-05T13:03:07.097Z,98241.41
2022-12-05T13:04:23.567Z,98232.66
2022-12-05T13:05:42.233Z,98245.16
2022-12-05T13:07:00.294Z,98229.63
2022-12-05T13:08:18.632Z,98232.94
2022-12-05T13:09:33.380Z,98229.88
2022-12-05T13:10:45.048Z,98242.38
2022-12-05T13:11:56.521Z,98238.22
2022-12-05T13:13:03.026Z,98240.72
2022-12-05T13:14:18.828Z,98232.38
2022-12-05T13:15:41.184Z,98242.38
2022-12-05T13:16:55.084Z,98240.81
2022-12-05T13:18:00.164Z,98245.56
2022-12-05T13:19:09.815Z,98245.09
2022-12-05T13:20:23.634Z,98224.16
2022-12-05T13:21:31.662Z,98239.84
2022-12-05T13:22:41.256Z,98245.44
2022-12-05T13:23:55.241Z,98249.72
2022-12-05T13:25:01.629Z,98202.41
2022-12-05T13:26:15.610Z,98243.47
2022-12-05T13:27:27.394Z,98246.78
2022-12-05T13:28:42.308Z,98246.53
2022-12-05T13:29:56.876Z,98248.75
2022-12-05T13:31:06.693Z,98242.38
2022-12-05T13:32:33.878Z,98249.16
2022-12-05T13:33:49.661Z,98242.81
2022-12-05T13:34:57.939Z,98240.84
2022-12-05T13:36:26.356Z,98250.97
2022-12-05T13:37:49.052Z,98242.09
2022-12-05T13:39:20.114Z,98243.34
2022-12-05T13:40:46.732Z,98244.59
2022-12-05T13:42:11.737Z,98246.50
2022-12-05T13:43:23.320Z,98245.66
2022-12-05T13:44:41.006Z,98240.13
2022-12-05T13:46:08.330Z,98243.84
2022-12-05T13:47:34.375Z,98238.41
2022-12-05T13:48:47.468Z,98240.78
2022-12-05T13:50:00.840Z,98231.28
2022-12-05T13:51:16.614Z,98236.56
2022-12-05T13:52:30.694Z,98233.06
2022-12-05T13:53:44.053Z,98242.22
2022-12-05T13:55:04.302Z,98236.00
2022-12-05T13:56:31.181Z,98245.28
2022-12-05T13:57:56.578Z,98247.59
2022-12-05T13:59:02.968Z,98235.84
2022-12-05T14:00:34.462Z,98255.31
2022-12-05T14:01:56.132Z,98255.00
2022-12-05T14:03:41.063Z,98246.56
2022-12-05T14:04:54.099Z,98244.22
2022-12-05T14:06:01.771Z,98250.06
2022-12-05T14:07:08.622Z,98257.69
2022-12-05T14:08:56.595Z,98254.63
2022-12-05T14:10:05.718Z,98254.72
2022-12-05T14:11:15.475Z,98253.03
2022-12-05T14:12:54.176Z,98227.41
2022-12-05T14:14:04.682Z,98250.78
2022-12-05T14:15:35.496Z,98252.38
2022-12-05T14:16:48.640Z,98242.38
2022-12-05T14:18:05.185Z,98246.75
2022-12-05T14:19:55.588Z,98248.88
2022-12-05T14:21:17.992Z,98240.84
2022-12-05T14:23:10.881Z,98252.63
2022-12-05T14:24:39.104Z,98255.09
2022-12-05T14:26:20.864Z,98250.44
2022-12-05T14:27:52.710Z,98258.25
2022-12-05T14:29:33.998Z,98256.19
2022-12-05T14:31:06.010Z,98259.28
2022-12-05T14:32:28.557Z,98260.03
2022-12-05T14:33:37.673Z,98256.31
2022-12-05T14:35:01.983Z,98273.59
2022-12-05T14:36:20.606Z,98265.97
2022-12-05T14:37:33.952Z,98258.19
2022-12-05T14:38:43.372Z,98266.38
2022-12-05T14:39:57.372Z,98267.19
2022-12-05T14:41:35.198Z,98266.06
2022-12-05T14:42:48.124Z,98268.78
2022-12-05T14:44:03.817Z,98265.06
2022-12-05T14:45:36.145Z,98260.19
2022-12-05T14:46:49.255Z,98260.19
2022-12-05T14:48:00.999Z,98265.63
2022-12-05T14:49:56.635Z,98261.25
2022-12-05T14:51:04.994Z,98258.06
2022-12-05T14:52:20.190Z,98256.91